createdAt,value
2023-01-28T00:01:35.966Z,7.38
2023-01-28T00:04:22.995Z,6.63
2023-01-28T00:07:09.678Z,7.30
2023-01-28T00:09:56.279Z,6.68
2023-01-28T00:12:44.578Z,6.97
2023-01-28T00:15:31.582Z,7.57
2023-01-28T00:18:18.262Z,6.90
2023-01-28T00:21:07.657Z,6.50
2023-01-28T00:23:56.007Z,6.85
2023-01-28T00:26:43.838Z,6.80
2023-01-28T00:29:32.119Z,6.40
2023-01-28T00:32:18.725Z,7.25
2023-01-28T00:35:05.979Z,7.25
2023-01-28T00:37:52.916Z,7.18
2023-01-28T00:40:39.916Z,8.00
2023-01-28T00:43:26.879Z,6.75
2023-01-28T00:46:15.580Z,7.50
2023-01-28T00:49:02.890Z,7.63
2023-01-28T00:51:49.987Z,6.90
2023-01-28T00:54:37.640Z,6.55
2023-01-28T00:57:24.447Z,7.00
2023-01-28T01:00:12.738Z,6.82
2023-01-28T01:03:01.105Z,6.10
2023-01-28T01:05:48.618Z,6.30
2023-01-28T01:08:40.173Z,6.60
2023-01-28T01:11:27.062Z,6.82
2023-01-28T01:14:13.818Z,5.93
2023-01-28T01:17:00.643Z,6.82
2023-01-28T01:19:48.845Z,6.57
2023-01-28T01:22:35.989Z,6.63
2023-01-28T01:25:23.232Z,6.72
2023-01-28T01:28:10.051Z,7.32
2023-01-28T01:31:02.198Z,6.90
2023-01-28T01:33:50.910Z,7.22
2023-01-28T01:36:39.280Z,7.38
2023-01-28T01:39:26.267Z,6.65
2023-01-28T01:42:14.936Z,6.75
2023-01-28T01:45:04.309Z,6.80
2023-01-28T01:48:02.199Z,7.20
2023-01-28T01:50:54.104Z,6.47
2023-01-28T01:53:44.985Z,7.03
2023-01-28T01:56:36.727Z,6.80
2023-01-28T01:59:27.051Z,6.75
2023-01-28T02:02:14.320Z,6.50
2023-01-28T02:07:55.013Z,6.40
2023-01-28T02:10:43.239Z,6.40
2023-01-28T02:13:34.438Z,6.68
2023-01-28T02:16:22.258Z,6.88
2023-01-28T02:19:10.245Z,6.45
2023-01-28T02:22:11.350Z,6.32
2023-01-28T02:25:17.836Z,6.90
2023-01-28T02:28:24.024Z,6.72
2023-01-28T02:31:15.771Z,6.68
2023-01-28T02:34:11.209Z,6.22
2023-01-28T02:37:04.008Z,6.28
2023-01-28T02:39:55.790Z,6.68
2023-01-28T02:42:43.295Z,6.75
2023-01-28T02:45:47.944Z,6.80
2023-01-28T02:48:34.663Z,6.93
2023-01-28T02:51:34.378Z,6.50
2023-01-28T02:54:32.947Z,6.65
2023-01-28T02:57:31.379Z,6.60
2023-01-28T03:00:24.269Z,6.85
2023-01-28T03:03:17.950Z,6.40
2023-01-28T03:06:08.929Z,5.85
2023-01-28T03:09:17.518Z,6.32
2023-01-28T03:12:25.581Z,6.70
2023-01-28T03:15:34.544Z,7.40
2023-01-28T03:18:45.334Z,7.15
2023-01-28T03:21:53.069Z,6.93
2023-01-28T03:25:05.438Z,6.38
2023-01-28T03:28:13.476Z,7.43
2023-01-28T03:31:24.813Z,6.22
2023-01-28T03:34:34.290Z,6.43
2023-01-28T03:37:21.151Z,6.55
2023-01-28T03:40:13.198Z,6.60
2023-01-28T03:43:00.798Z,6.78
2023-01-28T03:45:55.530Z,6.82
2023-01-28T03:48:42.596Z,6.35
2023-01-28T03:51:32.285Z,6.57
2023-01-28T03:54:18.611Z,6.93
2023-01-28T03:57:07.061Z,6.80
2023-01-28T03:59:54.320Z,6.78
2023-01-28T04:02:41.886Z,6.55
2023-01-28T04:05:31.716Z,6.68
2023-01-28T04:08:21.024Z,6.93
2023-01-28T04:11:26.101Z,7.13
2023-01-28T04:14:12.612Z,7.50
2023-01-28T04:17:19.441Z,6.68
2023-01-28T04:20:07.272Z,6.38
2023-01-28T04:22:53.897Z,6.82
2023-01-28T04:25:43.349Z,6.90
2023-01-28T04:28:30.210Z,7.05
2023-01-28T04:31:18.246Z,6.07
2023-01-28T04:34:14.387Z,6.93
2023-01-28T04:37:11.727Z,6.53
2023-01-28T04:40:16.934Z,5.95
2023-01-28T04:43:19.969Z,6.78
2023-01-28T04:46:29.416Z,7.78
2023-01-28T04:49:33.424Z,6.75
2023-01-28T04:52:32.384Z,7.00
2023-01-28T04:55:32.882Z,8.13
2023-01-28T04:58:21.993Z,7.10
2023-01-28T05:01:11.397Z,7.32
2023-01-28T05:03:58.037Z,7.05
2023-01-28T05:06:46.640Z,6.82
2023-01-28T05:09:39.213Z,7.80
2023-01-28T05:12:25.912Z,7.82
2023-01-28T05:15:16.513Z,7.85
2023-01-28T05:18:03.325Z,6.95
2023-01-28T05:20:55.194Z,7.20
2023-01-28T05:23:41.882Z,6.72
2023-01-28T05:26:29.049Z,7.38
2023-01-28T05:29:15.397Z,6.75
2023-01-28T05:32:03.499Z,6.65
2023-01-28T05:34:51.432Z,6.57
2023-01-28T05:37:38.152Z,7.20
2023-01-28T05:40:24.882Z,7.32
2023-01-28T05:43:11.761Z,6.72
2023-01-28T05:46:04.376Z,10.48
2023-01-28T05:49:22.239Z,6.95
2023-01-28T05:52:28.885Z,6.10
2023-01-28T05:55:16.311Z,6.70
2023-01-28T05:58:03.032Z,7.30
2023-01-28T06:00:50.044Z,6.47
2023-01-28T06:03:42.717Z,5.53
2023-01-28T06:06:31.121Z,6.00
2023-01-28T06:09:17.844Z,5.90
2023-01-28T06:12:04.082Z,6.15
2023-01-28T06:14:56.494Z,6.30
2023-01-28T06:18:09.025Z,6.75
2023-01-28T06:20:55.492Z,6.97
2023-01-28T06:23:43.066Z,6.22
2023-01-28T06:26:30.193Z,6.53
2023-01-28T06:29:17.089Z,6.68
2023-01-28T06:32:04.020Z,6.65
2023-01-28T06:34:50.430Z,6.63
2023-01-28T06:37:37.349Z,6.57
2023-01-28T06:40:25.994Z,7.40
2023-01-28T06:43:12.452Z,6.53
2023-01-28T06:45:59.832Z,6.43
2023-01-28T06:48:47.050Z,6.28
2023-01-28T06:51:33.635Z,6.78
2023-01-28T06:54:19.977Z,6.63
2023-01-28T06:57:07.970Z,6.78
2023-01-28T06:59:54.432Z,6.97
2023-01-28T07:02:41.074Z,6.85
2023-01-28T07:05:27.644Z,6.57
2023-01-28T07:08:14.423Z,6.53
2023-01-28T07:11:01.566Z,7.07
2023-01-28T07:13:49.328Z,7.43
2023-01-28T07:16:35.764Z,7.32
2023-01-28T07:19:22.275Z,7.28
2023-01-28T07:22:08.848Z,7.18
2023-01-28T07:24:55.668Z,8.45
2023-01-28T07:27:47.640Z,7.85
2023-01-28T07:30:35.283Z,7.72
2023-01-28T07:33:22.294Z,7.32
2023-01-28T07:36:09.442Z,8.23
2023-01-28T07:38:55.712Z,8.00
2023-01-28T07:41:42.253Z,8.40
2023-01-28T07:44:30.573Z,8.27
2023-01-28T07:47:19.590Z,7.78
2023-01-28T07:50:06.979Z,7.75
2023-01-28T07:52:53.518Z,7.95
2023-01-28T07:55:40.331Z,7.70
2023-01-28T07:58:26.693Z,8.00
2023-01-28T08:01:14.216Z,7.75
2023-01-28T08:04:02.136Z,7.85
2023-01-28T08:06:48.712Z,8.40
2023-01-28T08:09:35.450Z,8.00
2023-01-28T08:12:21.924Z,7.93
2023-01-28T08:15:09.678Z,8.63
2023-01-28T08:17:57.779Z,8.00
2023-01-28T08:20:47.349Z,8.32
2023-01-28T08:23:34.607Z,9.43
2023-01-28T08:26:21.329Z,9.02
2023-01-28T08:29:08.084Z,8.52
2023-01-28T08:31:54.750Z,8.57
2023-01-28T08:34:41.300Z,8.57
2023-01-28T08:37:29.068Z,8.05
2023-01-28T08:40:16.690Z,8.35
2023-01-28T08:43:03.517Z,8.25
2023-01-28T08:45:50.323Z,7.72
2023-01-28T08:48:38.509Z,6.40
2023-01-28T08:51:25.060Z,5.85
2023-01-28T08:54:12.906Z,6.47
2023-01-28T08:56:59.497Z,6.32
2023-01-28T08:59:46.419Z,6.53
2023-01-28T09:02:33.034Z,5.68
2023-01-28T09:05:19.962Z,6.05
2023-01-28T09:08:09.272Z,5.07
2023-01-28T09:10:57.803Z,5.93
2023-01-28T09:13:44.117Z,5.40
2023-01-28T09:16:30.565Z,6.05
2023-01-28T09:19:17.109Z,5.65
2023-01-28T09:22:04.645Z,4.72
2023-01-28T09:24:51.080Z,4.45
2023-01-28T09:27:39.041Z,5.32
2023-01-28T09:30:25.818Z,5.80
2023-01-28T09:33:12.571Z,5.30
2023-01-28T09:36:01.071Z,5.50
2023-01-28T09:38:47.638Z,5.85
2023-01-28T09:41:48.698Z,6.25
2023-01-28T09:44:53.556Z,6.10
2023-01-28T09:47:45.396Z,5.65
2023-01-28T09:50:34.682Z,5.72
2023-01-28T09:53:25.970Z,5.28
2023-01-28T09:56:17.024Z,5.15
2023-01-28T09:59:17.676Z,5.35
2023-01-28T10:02:26.081Z,5.13
2023-01-28T10:05:21.380Z,4.53
2023-01-28T10:08:26.524Z,4.93
2023-01-28T10:11:21.691Z,4.25
2023-01-28T10:14:14.472Z,4.45
2023-01-28T10:17:11.538Z,4.65
2023-01-28T10:20:02.986Z,4.97
2023-01-28T10:22:54.173Z,5.40
2023-01-28T10:28:32.582Z,5.28
2023-01-28T10:31:19.096Z,5.65
2023-01-28T10:34:07.270Z,5.35
2023-01-28T10:36:54.396Z,5.10
2023-01-28T10:39:41.148Z,4.80
2023-01-28T10:42:30.367Z,5.18
2023-01-28T10:45:22.138Z,4.75
2023-01-28T10:48:16.212Z,5.10
2023-01-28T10:51:06.113Z,4.30
2023-01-28T10:53:52.344Z,4.95
2023-01-28T10:56:39.131Z,4.90
2023-01-28T10:59:29.078Z,4.95
2023-01-28T11:02:29.328Z,4.80
2023-01-28T11:05:20.871Z,4.82
2023-01-28T11:08:15.550Z,4.57
2023-01-28T11:11:02.200Z,4.60
2023-01-28T11:13:53.448Z,4.13
2023-01-28T11:16:41.167Z,4.80
2023-01-28T11:19:34.862Z,4.70
2023-01-28T11:22:28.427Z,4.25
2023-01-28T11:25:22.753Z,4.05
2023-01-28T11:28:19.575Z,3.80
2023-01-28T11:31:06.763Z,4.65
2023-01-28T11:33:57.206Z,4.60
2023-01-28T11:36:52.045Z,3.80
2023-01-28T11:39:38.813Z,3.80
2023-01-28T11:42:26.645Z,4.00
2023-01-28T11:45:17.914Z,3.75
2023-01-28T11:48:15.641Z,3.65
2023-01-28T11:51:05.834Z,3.47
2023-01-28T11:56:58.152Z,3.00
2023-01-28T11:59:59.439Z,3.20
2023-01-28T12:02:54.616Z,3.03
2023-01-28T12:05:50.472Z,3.63
2023-01-28T12:08:46.001Z,3.80
2023-01-28T12:12:03.544Z,3.50
2023-01-28T12:15:17.726Z,3.50
2023-01-28T12:18:18.150Z,4.50
2023-01-28T12:24:10.881Z,3.40
2023-01-28T12:27:06.661Z,3.70
2023-01-28T12:30:05.174Z,3.47
2023-01-28T12:33:06.818Z,3.38
2023-01-28T12:36:07.352Z,3.40
2023-01-28T12:39:04.306Z,3.40
2023-01-28T12:41:56.950Z,3.33
2023-01-28T12:44:49.699Z,2.80
2023-01-28T12:47:40.544Z,3.55
2023-01-28T12:50:32.640Z,3.30
2023-01-28T12:53:27.115Z,3.53
2023-01-28T12:56:17.657Z,3.45
2023-01-28T12:59:11.615Z,3.60
2023-01-28T13:02:10.326Z,3.78
2023-01-28T13:05:07.026Z,3.30
2023-01-28T13:07:58.371Z,3.70
2023-01-28T13:10:47.218Z,4.03
2023-01-28T13:13:35.195Z,3.30
2023-01-28T13:16:35.902Z,4.15
2023-01-28T13:19:26.181Z,3.67
2023-01-28T13:22:28.036Z,4.13
2023-01-28T13:25:21.261Z,3.92
2023-01-28T13:28:29.511Z,4.63
2023-01-28T13:31:18.504Z,4.10
2023-01-28T13:34:07.683Z,4.57
2023-01-28T13:36:54.788Z,4.13
2023-01-28T13:39:49.189Z,4.13
2023-01-28T13:42:36.363Z,3.40
2023-01-28T13:45:24.821Z,3.65
2023-01-28T13:48:28.099Z,3.88
2023-01-28T13:51:21.122Z,4.85
2023-01-28T13:54:13.692Z,4.22
2023-01-28T13:57:34.823Z,3.60
2023-01-28T14:00:27.734Z,4.05
2023-01-28T14:03:42.003Z,3.40
2023-01-28T14:07:02.358Z,4.05
2023-01-28T14:10:06.972Z,4.13
2023-01-28T14:13:13.847Z,3.78
2023-01-28T14:16:15.922Z,4.82
2023-01-28T14:19:03.565Z,4.25
2023-01-28T14:21:50.547Z,4.40
2023-01-28T14:24:38.764Z,3.45
2023-01-28T14:27:33.401Z,3.35
2023-01-28T14:30:27.903Z,4.35
2023-01-28T14:33:14.842Z,4.70
2023-01-28T14:36:01.392Z,4.57
2023-01-28T14:38:48.084Z,4.30
2023-01-28T14:41:36.016Z,4.18
2023-01-28T14:44:30.241Z,4.47
2023-01-28T14:47:33.524Z,4.72
2023-01-28T14:50:36.563Z,4.75
2023-01-28T14:53:39.662Z,3.90
2023-01-28T14:56:38.589Z,3.67
2023-01-28T14:59:29.439Z,4.00
2023-01-28T15:02:22.782Z,3.83
2023-01-28T15:05:11.679Z,4.50
2023-01-28T15:07:58.381Z,3.80
2023-01-28T15:10:45.094Z,4.18
2023-01-28T15:13:37.317Z,4.45
2023-01-28T15:16:29.007Z,3.42
2023-01-28T15:19:18.087Z,3.65
2023-01-28T15:22:08.229Z,3.75
2023-01-28T15:24:55.400Z,3.72
2023-01-28T15:27:43.355Z,4.03
2023-01-28T15:30:31.746Z,4.03
2023-01-28T15:33:18.539Z,4.22
2023-01-28T15:36:07.608Z,4.60
2023-01-28T15:38:54.556Z,5.13
2023-01-28T15:41:44.478Z,6.05
2023-01-28T15:44:34.898Z,4.95
2023-01-28T15:47:24.800Z,4.55
2023-01-28T15:50:19.592Z,4.93
2023-01-28T15:53:11.137Z,4.95
2023-01-28T15:56:06.842Z,4.45
2023-01-28T15:58:53.955Z,4.25
2023-01-28T16:01:40.233Z,5.65
2023-01-28T16:04:28.671Z,4.70
2023-01-28T16:07:15.656Z,4.43
2023-01-28T16:10:04.725Z,5.40
2023-01-28T16:12:53.216Z,4.82
2023-01-28T16:15:41.745Z,5.28
2023-01-28T16:18:36.582Z,4.95
2023-01-28T16:21:26.486Z,4.47
2023-01-28T16:24:24.730Z,5.13
2023-01-28T16:27:23.364Z,4.93
2023-01-28T16:30:12.461Z,5.00
2023-01-28T16:33:00.241Z,5.45
2023-01-28T16:36:04.541Z,5.63
2023-01-28T16:38:52.833Z,5.60
2023-01-28T16:41:42.297Z,5.13
2023-01-28T16:44:30.492Z,5.40
2023-01-28T16:47:17.285Z,5.95
2023-01-28T16:50:04.045Z,5.63
2023-01-28T16:52:54.548Z,7.35
2023-01-28T16:55:41.447Z,6.10
2023-01-28T16:58:28.770Z,6.20
2023-01-28T17:01:16.750Z,6.70
2023-01-28T17:04:05.601Z,6.80
2023-01-28T17:06:53.225Z,7.05
2023-01-28T17:09:40.690Z,7.13
2023-01-28T17:12:27.367Z,7.70
2023-01-28T17:15:14.436Z,8.13
2023-01-28T17:18:03.089Z,7.40
2023-01-28T17:20:49.623Z,6.63
2023-01-28T17:23:36.684Z,7.25
2023-01-28T17:26:22.976Z,6.57
2023-01-28T17:29:09.750Z,6.10
2023-01-28T17:31:57.001Z,7.25
2023-01-28T17:34:45.262Z,6.55
2023-01-28T17:37:31.867Z,6.57
2023-01-28T17:40:19.273Z,6.72
2023-01-28T17:43:06.288Z,6.65
2023-01-28T17:45:52.838Z,6.38
2023-01-28T17:48:39.637Z,6.65
2023-01-28T17:51:27.853Z,7.05
2023-01-28T17:54:15.738Z,6.97
2023-01-28T17:57:02.624Z,6.90
2023-01-28T17:59:49.172Z,6.65
2023-01-28T18:02:35.799Z,8.05
2023-01-28T18:05:22.560Z,7.63
2023-01-28T18:08:10.797Z,8.05
2023-01-28T18:10:57.599Z,8.80
2023-01-28T18:13:44.496Z,9.88
2023-01-28T18:16:31.565Z,7.95
2023-01-28T18:19:18.182Z,8.65
2023-01-28T18:22:04.914Z,7.63
2023-01-28T18:24:52.917Z,6.93
2023-01-28T18:27:39.622Z,7.63
2023-01-28T18:30:26.329Z,8.25
2023-01-28T18:33:12.959Z,6.97
2023-01-28T18:35:59.847Z,6.47
2023-01-28T18:38:46.713Z,6.57
2023-01-28T18:41:34.824Z,7.25
2023-01-28T18:44:23.103Z,8.00
2023-01-28T18:47:10.033Z,7.32
2023-01-28T18:49:56.284Z,7.40
2023-01-28T18:52:43.251Z,7.53
2023-01-28T18:55:29.927Z,8.52
2023-01-28T18:58:17.809Z,7.65
2023-01-28T19:01:08.726Z,7.90
2023-01-28T19:03:55.430Z,8.40
2023-01-28T19:06:42.223Z,8.30
2023-01-28T19:09:28.902Z,8.27
2023-01-28T19:12:15.634Z,7.97
2023-01-28T19:15:03.851Z,9.23
2023-01-28T19:17:50.001Z,8.32
2023-01-28T19:20:36.685Z,8.35
2023-01-28T19:23:23.388Z,9.18
2023-01-28T19:26:10.790Z,10.25
2023-01-28T19:28:57.343Z,10.07
2023-01-28T19:31:48.765Z,9.85
2023-01-28T19:34:35.321Z,8.82
2023-01-28T19:37:21.895Z,9.68
2023-01-28T19:40:09.752Z,9.45
2023-01-28T19:42:56.107Z,9.98
2023-01-28T19:45:42.827Z,8.65
2023-01-28T19:48:30.856Z,8.43
2023-01-28T19:51:17.560Z,9.20
2023-01-28T19:54:04.774Z,9.55
2023-01-28T19:56:51.136Z,9.43
2023-01-28T19:59:37.675Z,9.23
2023-01-28T20:02:24.346Z,9.60
2023-01-28T20:05:12.335Z,9.15
2023-01-28T20:07:58.924Z,10.02
2023-01-28T20:10:45.515Z,10.98
2023-01-28T20:13:33.895Z,10.38
2023-01-28T20:16:23.159Z,9.75
2023-01-28T20:19:15.237Z,9.48
2023-01-28T20:22:03.261Z,9.95
2023-01-28T20:24:57.019Z,9.38
2023-01-28T20:27:43.643Z,10.30
2023-01-28T20:30:30.185Z,9.10
2023-01-28T20:33:17.034Z,9.68
2023-01-28T20:36:04.239Z,9.45
2023-01-28T20:38:52.939Z,10.27
2023-01-28T20:41:39.718Z,9.60
2023-01-28T20:44:26.696Z,9.88
2023-01-28T20:47:12.907Z,9.55
2023-01-28T20:49:59.390Z,9.85
2023-01-28T20:52:45.989Z,10.38
2023-01-28T20:55:33.905Z,11.15
2023-01-28T20:58:20.380Z,10.15
2023-01-28T21:01:07.110Z,9.70
2023-01-28T21:03:54.040Z,10.65
2023-01-28T21:06:40.914Z,10.15
2023-01-28T21:09:27.917Z,11.38
2023-01-28T21:12:15.863Z,10.45
2023-01-28T21:15:03.476Z,10.85
2023-01-28T21:17:50.168Z,12.23
2023-01-28T21:20:36.528Z,11.35
2023-01-28T21:23:24.164Z,12.00
2023-01-28T21:26:11.459Z,11.82
2023-01-28T21:29:02.171Z,11.70
2023-01-28T21:34:35.251Z,11.55
2023-01-28T21:37:22.473Z,11.38
2023-01-28T21:40:10.515Z,11.20
2023-01-28T21:42:56.798Z,11.55
2023-01-28T21:45:47.632Z,11.82
2023-01-28T21:48:34.171Z,11.80
2023-01-28T21:51:40.381Z,11.60
2023-01-28T21:54:27.325Z,12.63
2023-01-28T21:57:13.911Z,12.73
2023-01-28T22:00:00.319Z,13.63
2023-01-28T22:02:48.240Z,13.20
2023-01-28T22:05:34.774Z,13.93
2023-01-28T22:08:21.307Z,13.40
2023-01-28T22:11:09.496Z,13.30
2023-01-28T22:13:56.054Z,13.02
2023-01-28T22:16:43.496Z,13.57
2023-01-28T22:19:31.623Z,14.02
2023-01-28T22:22:18.655Z,14.43
2023-01-28T22:25:05.446Z,14.07
2023-01-28T22:27:51.633Z,13.57
2023-01-28T22:30:38.263Z,15.20
2023-01-28T22:33:25.817Z,14.18
2023-01-28T22:36:16.906Z,14.20
2023-01-28T22:39:06.264Z,14.48
2023-01-28T22:41:53.126Z,14.38
2023-01-28T22:44:39.832Z,13.43
2023-01-28T22:47:26.315Z,14.45
2023-01-28T22:50:13.501Z,15.52
2023-01-28T22:53:01.649Z,15.20
2023-01-28T22:55:51.806Z,13.55
2023-01-28T22:58:38.363Z,13.68
2023-01-28T23:02:03.209Z,14.43
2023-01-28T23:04:50.831Z,14.07
2023-01-28T23:07:37.328Z,15.20
2023-01-28T23:10:25.152Z,15.25
2023-01-28T23:13:11.525Z,14.68
2023-01-28T23:16:15.837Z,14.75
2023-01-28T23:19:20.162Z,14.68
2023-01-28T23:22:36.066Z,14.98
2023-01-28T23:25:25.546Z,15.55
2023-01-28T23:28:11.827Z,14.65
2023-01-28T23:30:58.616Z,13.98
2023-01-28T23:33:44.993Z,14.75
2023-01-28T23:36:31.676Z,15.23
2023-01-28T23:39:18.286Z,14.35
2023-01-28T23:42:14.337Z,13.65
2023-01-28T23:45:00.433Z,14.90
2023-01-28T23:47:47.298Z,15.18
2023-01-28T23:50:33.523Z,14.63
2023-01-28T23:53:20.030Z,14.82
2023-01-28T23:56:07.521Z,16.13
2023-01-28T23:58:56.974Z,14.68
